sensor_id;sensor_type;location;lat;lon;timestamp;temperature;humidity
67364;HTU21D;54250;45.572;38.086;2023-01-10T00:01:36;-7.19;78.88
67364;HTU21D;54250;45.572;38.086;2023-01-10T00:04:03;-7.15;78.75
67364;HTU21D;54250;45.572;38.086;2023-01-10T00:06:29;-7.07;78.57
67364;HTU21D;54250;45.572;38.086;2023-01-10T00:08:55;-7.05;78.37
67364;HTU21D;54250;45.572;38.086;2023-01-10T00:11:22;-7.06;78.33
67364;HTU21D;54250;45.572;38.086;2023-01-10T00:14:07;-7.08;78.29
67364;HTU21D;54250;45.572;38.086;2023-01-10T00:16:33;-7.05;78.22
67364;HTU21D;54250;45.572;38.086;2023-01-10T00:19:01;-7.04;78.14
67364;HTU21D;54250;45.572;38.086;2023-01-10T00:21:27;-7.03;78.05
67364;HTU21D;54250;45.572;38.086;2023-01-10T00:23:55;-6.95;77.98
67364;HTU21D;54250;45.572;38.086;2023-01-10T00:26:32;-6.95;77.77
67364;HTU21D;54250;45.572;38.086;2023-01-10T00:28:57;-6.94;77.66
67364;HTU21D;54250;45.572;38.086;2023-01-10T00:31:24;-6.94;77.63
67364;HTU21D;54250;45.572;38.086;2023-01-10T00:33:49;-6.95;77.60
67364;HTU21D;54250;45.572;38.086;2023-01-10T00:36:15;-6.96;77.53
67364;HTU21D;54250;45.572;38.086;2023-01-10T00:38:42;-7.03;77.53
67364;HTU21D;54250;45.572;38.086;2023-01-10T00:41:08;-7.09;77.53
67364;HTU21D;54250;45.572;38.086;2023-01-10T00:43:53;-7.18;77.69
67364;HTU21D;54250;45.572;38.086;2023-01-10T00:46:22;-7.30;77.77
67364;HTU21D;54250;45.572;38.086;2023-01-10T00:48:49;-7.30;77.90
67364;HTU21D;54250;45.572;38.086;2023-01-10T00:51:15;-7.34;77.92
67364;HTU21D;54250;45.572;38.086;2023-01-10T00:53:41;-7.35;77.95
67364;HTU21D;54250;45.572;38.086;2023-01-10T00:56:07;-7.37;77.81
67364;HTU21D;54250;45.572;38.086;2023-01-10T00:58:33;-7.41;77.85
67364;HTU21D;54250;45.572;38.086;2023-01-10T01:00:59;-7.45;77.85
67364;HTU21D;54250;45.572;38.086;2023-01-10T01:03:25;-7.45;77.77
67364;HTU21D;54250;45.572;38.086;2023-01-10T01:05:51;-7.51;77.79
67364;HTU21D;54250;45.572;38.086;2023-01-10T01:08:17;-7.50;77.75
67364;HTU21D;54250;45.572;38.086;2023-01-10T01:10:44;-7.54;77.70
67364;HTU21D;54250;45.572;38.086;2023-01-10T01:13:14;-7.55;77.67
67364;HTU21D;54250;45.572;38.086;2023-01-10T01:15:41;-7.57;77.63
67364;HTU21D;54250;45.572;38.086;2023-01-10T01:18:09;-7.61;77.62
67364;HTU21D;54250;45.572;38.086;2023-01-10T01:20:39;-7.63;77.61
67364;HTU21D;54250;45.572;38.086;2023-01-10T01:23:05;-7.69;77.69
67364;HTU21D;54250;45.572;38.086;2023-01-10T01:25:32;-7.65;77.60
67364;HTU21D;54250;45.572;38.086;2023-01-10T01:27:58;-7.65;77.54
67364;HTU21D;54250;45.572;38.086;2023-01-10T01:30:24;-7.68;77.50
67364;HTU21D;54250;45.572;38.086;2023-01-10T01:32:50;-7.74;77.51
67364;HTU21D;54250;45.572;38.086;2023-01-10T01:35:16;-7.76;77.58
67364;HTU21D;54250;45.572;38.086;2023-01-10T01:37:43;-7.76;77.60
67364;HTU21D;54250;45.572;38.086;2023-01-10T01:40:14;-7.81;77.60
67364;HTU21D;54250;45.572;38.086;2023-01-10T01:42:41;-7.83;77.60
67364;HTU21D;54250;45.572;38.086;2023-01-10T01:47:52;-7.87;77.49
67364;HTU21D;54250;45.572;38.086;2023-01-10T01:50:25;-7.90;77.63
67364;HTU21D;54250;45.572;38.086;2023-01-10T01:52:55;-7.92;77.63
67364;HTU21D;54250;45.572;38.086;2023-01-10T01:55:23;-7.92;77.56
67364;HTU21D;54250;45.572;38.086;2023-01-10T01:57:52;-7.92;77.51
67364;HTU21D;54250;45.572;38.086;2023-01-10T02:00:19;-7.96;77.52
67364;HTU21D;54250;45.572;38.086;2023-01-10T02:02:49;-7.97;77.50
67364;HTU21D;54250;45.572;38.086;2023-01-10T02:05:18;-7.99;77.50
67364;HTU21D;54250;45.572;38.086;2023-01-10T02:07:53;-8.01;77.52
67364;HTU21D;54250;45.572;38.086;2023-01-10T02:12:53;-8.11;77.66
67364;HTU21D;54250;45.572;38.086;2023-01-10T02:15:20;-8.07;77.66
67364;HTU21D;54250;45.572;38.086;2023-01-10T02:17:48;-8.06;77.58
67364;HTU21D;54250;45.572;38.086;2023-01-10T02:20:15;-8.08;77.58
67364;HTU21D;54250;45.572;38.086;2023-01-10T02:39:35;-8.20;77.59
67364;HTU21D;54250;45.572;38.086;2023-01-10T02:42:08;-8.18;77.59
67364;HTU21D;54250;45.572;38.086;2023-01-10T02:47:04;-8.14;77.47
67364;HTU21D;54250;45.572;38.086;2023-01-10T02:49:43;-8.14;77.40
67364;HTU21D;54250;45.572;38.086;2023-01-10T02:52:11;-8.13;77.36
67364;HTU21D;54250;45.572;38.086;2023-01-10T02:54:38;-8.14;77.34
67364;HTU21D;54250;45.572;38.086;2023-01-10T02:59:46;-8.19;77.34
67364;HTU21D;54250;45.572;38.086;2023-01-10T03:02:40;-8.20;77.23
67364;HTU21D;54250;45.572;38.086;2023-01-10T03:10:58;-8.27;77.44
67364;HTU21D;54250;45.572;38.086;2023-01-10T03:16:15;-8.28;77.37
67364;HTU21D;54250;45.572;38.086;2023-01-10T03:21:09;-8.29;77.47
67364;HTU21D;54250;45.572;38.086;2023-01-10T03:23:36;-8.31;77.39
67364;HTU21D;54250;45.572;38.086;2023-01-10T03:26:04;-8.37;77.42
67364;HTU21D;54250;45.572;38.086;2023-01-10T03:28:38;-8.34;77.35
67364;HTU21D;54250;45.572;38.086;2023-01-10T03:31:21;-8.41;77.44
67364;HTU21D;54250;45.572;38.086;2023-01-10T03:33:48;-8.40;77.50
67364;HTU21D;54250;45.572;38.086;2023-01-10T03:37:11;-8.48;77.47
67364;HTU21D;54250;45.572;38.086;2023-01-10T03:39:30;-8.49;77.63
67364;HTU21D;54250;45.572;38.086;2023-01-10T03:42:27;-8.54;77.58
67364;HTU21D;54250;45.572;38.086;2023-01-10T03:45:03;-8.56;77.70
67364;HTU21D;54250;45.572;38.086;2023-01-10T03:47:41;-8.59;77.75
67364;HTU21D;54250;45.572;38.086;2023-01-10T03:50:20;-8.60;77.80
67364;HTU21D;54250;45.572;38.086;2023-01-10T03:52:47;-8.66;77.82
67364;HTU21D;54250;45.572;38.086;2023-01-10T03:55:17;-8.70;77.93
67364;HTU21D;54250;45.572;38.086;2023-01-10T03:57:44;-8.69;78.02
67364;HTU21D;54250;45.572;38.086;2023-01-10T04:00:14;-8.69;78.01
67364;HTU21D;54250;45.572;38.086;2023-01-10T04:02:40;-8.71;78.01
67364;HTU21D;54250;45.572;38.086;2023-01-10T04:05:07;-8.68;78.01
67364;HTU21D;54250;45.572;38.086;2023-01-10T04:07:33;-8.68;78.05
67364;HTU21D;54250;45.572;38.086;2023-01-10T04:09:59;-8.67;78.08
67364;HTU21D;54250;45.572;38.086;2023-01-10T04:12:25;-8.67;78.09
67364;HTU21D;54250;45.572;38.086;2023-01-10T04:14:52;-8.68;78.03
67364;HTU21D;54250;45.572;38.086;2023-01-10T04:17:18;-8.70;78.17
67364;HTU21D;54250;45.572;38.086;2023-01-10T04:19:44;-8.72;78.13
67364;HTU21D;54250;45.572;38.086;2023-01-10T04:22:11;-8.69;78.23
67364;HTU21D;54250;45.572;38.086;2023-01-10T04:24:37;-8.66;78.16
67364;HTU21D;54250;45.572;38.086;2023-01-10T04:27:04;-8.66;78.11
67364;HTU21D;54250;45.572;38.086;2023-01-10T04:29:30;-8.67;78.07
67364;HTU21D;54250;45.572;38.086;2023-01-10T04:31:56;-8.72;78.18
67364;HTU21D;54250;45.572;38.086;2023-01-10T04:34:22;-8.79;78.17
67364;HTU21D;54250;45.572;38.086;2023-01-10T04:36:48;-8.73;78.31
67364;HTU21D;54250;45.572;38.086;2023-01-10T04:39:15;-8.74;78.15
67364;HTU21D;54250;45.572;38.086;2023-01-10T04:41:41;-8.80;78.23
67364;HTU21D;54250;45.572;38.086;2023-01-10T04:44:07;-8.80;78.33
67364;HTU21D;54250;45.572;38.086;2023-01-10T04:46:33;-8.83;78.25
67364;HTU21D;54250;45.572;38.086;2023-01-10T04:49:00;-8.84;78.30
67364;HTU21D;54250;45.572;38.086;2023-01-10T04:51:27;-8.83;78.24
67364;HTU21D;54250;45.572;38.086;2023-01-10T04:53:53;-8.86;78.28
67364;HTU21D;54250;45.572;38.086;2023-01-10T04:56:21;-8.88;78.27
67364;HTU21D;54250;45.572;38.086;2023-01-10T04:58:48;-8.87;78.25
67364;HTU21D;54250;45.572;38.086;2023-01-10T05:01:17;-8.92;78.21
67364;HTU21D;54250;45.572;38.086;2023-01-10T05:03:53;-8.93;78.27
67364;HTU21D;54250;45.572;38.086;2023-01-10T05:06:20;-8.95;78.31
67364;HTU21D;54250;45.572;38.086;2023-01-10T05:08:46;-8.98;78.32
67364;HTU21D;54250;45.572;38.086;2023-01-10T05:11:12;-9.00;78.34
67364;HTU21D;54250;45.572;38.086;2023-01-10T05:13:40;-8.96;78.28
67364;HTU21D;54250;45.572;38.086;2023-01-10T05:16:06;-8.98;78.27
67364;HTU21D;54250;45.572;38.086;2023-01-10T05:18:32;-9.01;78.24
67364;HTU21D;54250;45.572;38.086;2023-01-10T05:21:00;-8.94;78.24
67364;HTU21D;54250;45.572;38.086;2023-01-10T05:23:26;-8.86;78.07
67364;HTU21D;54250;45.572;38.086;2023-01-10T05:25:53;-8.75;77.81
67364;HTU21D;54250;45.572;38.086;2023-01-10T05:28:19;-8.70;77.59
67364;HTU21D;54250;45.572;38.086;2023-01-10T05:30:46;-8.55;77.66
67364;HTU21D;54250;45.572;38.086;2023-01-10T05:33:12;-8.33;77.08
67364;HTU21D;54250;45.572;38.086;2023-01-10T05:35:38;-8.26;76.55
67364;HTU21D;54250;45.572;38.086;2023-01-10T05:38:04;-8.28;76.58
67364;HTU21D;54250;45.572;38.086;2023-01-10T05:40:30;-8.16;76.44
67364;HTU21D;54250;45.572;38.086;2023-01-10T05:42:56;-7.99;75.83
67364;HTU21D;54250;45.572;38.086;2023-01-10T05:45:22;-7.86;75.33
67364;HTU21D;54250;45.572;38.086;2023-01-10T05:47:48;-7.79;75.25
67364;HTU21D;54250;45.572;38.086;2023-01-10T05:50:15;-7.39;74.69
67364;HTU21D;54250;45.572;38.086;2023-01-10T05:52:41;-7.24;73.48
67364;HTU21D;54250;45.572;38.086;2023-01-10T05:55:07;-7.31;73.17
67364;HTU21D;54250;45.572;38.086;2023-01-10T05:57:33;-7.37;73.59
67364;HTU21D;54250;45.572;38.086;2023-01-10T05:59:59;-7.47;73.69
67364;HTU21D;54250;45.572;38.086;2023-01-10T06:02:25;-7.34;73.65
67364;HTU21D;54250;45.572;38.086;2023-01-10T06:04:51;-6.94;72.30
67364;HTU21D;54250;45.572;38.086;2023-01-10T06:07:20;-6.80;71.67
67364;HTU21D;54250;45.572;38.086;2023-01-10T06:09:46;-6.65;71.16
67364;HTU21D;54250;45.572;38.086;2023-01-10T06:12:13;-6.71;70.73
67364;HTU21D;54250;45.572;38.086;2023-01-10T06:14:39;-6.61;71.15
67364;HTU21D;54250;45.572;38.086;2023-01-10T06:17:05;-6.16;70.02
67364;HTU21D;54250;45.572;38.086;2023-01-10T06:19:34;-5.86;68.71
67364;HTU21D;54250;45.572;38.086;2023-01-10T06:22:02;-5.50;67.97
67364;HTU21D;54250;45.572;38.086;2023-01-10T06:24:28;-4.78;66.46
67364;HTU21D;54250;45.572;38.086;2023-01-10T06:26:54;-4.24;64.45
67364;HTU21D;54250;45.572;38.086;2023-01-10T06:29:20;-3.67;63.33
67364;HTU21D;54250;45.572;38.086;2023-01-10T06:31:46;-3.25;62.38
67364;HTU21D;54250;45.572;38.086;2023-01-10T06:34:12;-2.90;62.00
67364;HTU21D;54250;45.572;38.086;2023-01-10T06:36:38;-2.68;59.95
67364;HTU21D;54250;45.572;38.086;2023-01-10T06:39:04;-2.44;61.43
67364;HTU21D;54250;45.572;38.086;2023-01-10T06:41:30;-1.73;59.72
67364;HTU21D;54250;45.572;38.086;2023-01-10T06:43:56;-1.32;57.87
67364;HTU21D;54250;45.572;38.086;2023-01-10T06:46:22;-1.17;58.13
67364;HTU21D;54250;45.572;38.086;2023-01-10T06:48:48;-1.60;57.14
67364;HTU21D;54250;45.572;38.086;2023-01-10T06:51:16;-1.41;59.26
67364;HTU21D;54250;45.572;38.086;2023-01-10T06:53:42;-0.81;56.36
67364;HTU21D;54250;45.572;38.086;2023-01-10T06:56:09;-0.47;56.47
67364;HTU21D;54250;45.572;38.086;2023-01-10T06:58:36;-0.08;53.69
67364;HTU21D;54250;45.572;38.086;2023-01-10T07:01:06;-0.10;53.89
67364;HTU21D;54250;45.572;38.086;2023-01-10T07:03:32;0.47;54.03
67364;HTU21D;54250;45.572;38.086;2023-01-10T07:06:02;0.54;53.83
67364;HTU21D;54250;45.572;38.086;2023-01-10T07:08:28;0.78;53.07
67364;HTU21D;54250;45.572;38.086;2023-01-10T07:10:56;0.67;50.75
67364;HTU21D;54250;45.572;38.086;2023-01-10T07:13:23;0.19;51.62
67364;HTU21D;54250;45.572;38.086;2023-01-10T07:15:49;-0.17;51.78
67364;HTU21D;54250;45.572;38.086;2023-01-10T07:18:15;-0.02;51.88
67364;HTU21D;54250;45.572;38.086;2023-01-10T07:20:43;0.02;50.97
67364;HTU21D;54250;45.572;38.086;2023-01-10T07:23:09;0.38;50.91
67364;HTU21D;54250;45.572;38.086;2023-01-10T07:25:35;0.82;50.55
67364;HTU21D;54250;45.572;38.086;2023-01-10T07:28:03;1.36;49.60
67364;HTU21D;54250;45.572;38.086;2023-01-10T07:30:29;1.33;49.11
67364;HTU21D;54250;45.572;38.086;2023-01-10T07:32:56;1.57;49.47
67364;HTU21D;54250;45.572;38.086;2023-01-10T07:35:23;1.77;49.12
67364;HTU21D;54250;45.572;38.086;2023-01-10T07:37:49;1.76;47.85
67364;HTU21D;54250;45.572;38.086;2023-01-10T07:40:15;1.72;47.96
67364;HTU21D;54250;45.572;38.086;2023-01-10T07:42:42;1.85;48.07
67364;HTU21D;54250;45.572;38.086;2023-01-10T07:45:08;1.99;47.92
67364;HTU21D;54250;45.572;38.086;2023-01-10T07:47:34;1.97;47.48
67364;HTU21D;54250;45.572;38.086;2023-01-10T07:50:00;1.79;46.55
67364;HTU21D;54250;45.572;38.086;2023-01-10T07:52:26;1.86;47.92
67364;HTU21D;54250;45.572;38.086;2023-01-10T07:54:52;2.23;47.71
67364;HTU21D;54250;45.572;38.086;2023-01-10T07:57:18;2.53;46.57
67364;HTU21D;54250;45.572;38.086;2023-01-10T07:59:44;2.30;46.15
67364;HTU21D;54250;45.572;38.086;2023-01-10T08:02:11;2.14;46.62
67364;HTU21D;54250;45.572;38.086;2023-01-10T08:04:37;2.46;46.36
67364;HTU21D;54250;45.572;38.086;2023-01-10T08:07:04;2.79;46.40
67364;HTU21D;54250;45.572;38.086;2023-01-10T08:09:30;2.58;45.53
67364;HTU21D;54250;45.572;38.086;2023-01-10T08:11:57;2.12;45.82
67364;HTU21D;54250;45.572;38.086;2023-01-10T08:14:23;2.00;44.95
67364;HTU21D;54250;45.572;38.086;2023-01-10T08:16:49;1.63;45.46
67364;HTU21D;54250;45.572;38.086;2023-01-10T08:19:15;1.41;45.87
67364;HTU21D;54250;45.572;38.086;2023-01-10T08:21:42;1.29;45.72
67364;HTU21D;54250;45.572;38.086;2023-01-10T08:24:09;1.53;46.53
67364;HTU21D;54250;45.572;38.086;2023-01-10T08:26:35;1.94;45.95
67364;HTU21D;54250;45.572;38.086;2023-01-10T08:29:01;2.16;45.27
67364;HTU21D;54250;45.572;38.086;2023-01-10T08:31:27;2.31;44.99
67364;HTU21D;54250;45.572;38.086;2023-01-10T08:33:53;2.24;44.03
67364;HTU21D;54250;45.572;38.086;2023-01-10T08:36:21;2.10;44.19
67364;HTU21D;54250;45.572;38.086;2023-01-10T08:38:48;2.28;45.05
67364;HTU21D;54250;45.572;38.086;2023-01-10T08:41:15;2.55;44.36
67364;HTU21D;54250;45.572;38.086;2023-01-10T08:43:41;2.47;44.05
67364;HTU21D;54250;45.572;38.086;2023-01-10T08:46:07;2.37;43.94
67364;HTU21D;54250;45.572;38.086;2023-01-10T08:48:33;2.29;43.69
67364;HTU21D;54250;45.572;38.086;2023-01-10T08:51:09;2.29;44.58
67364;HTU21D;54250;45.572;38.086;2023-01-10T08:53:35;2.29;44.63
67364;HTU21D;54250;45.572;38.086;2023-01-10T08:56:03;1.92;44.30
67364;HTU21D;54250;45.572;38.086;2023-01-10T08:58:29;1.98;45.33
67364;HTU21D;54250;45.572;38.086;2023-01-10T09:00:55;2.58;44.99
67364;HTU21D;54250;45.572;38.086;2023-01-10T09:03:21;2.75;44.35
67364;HTU21D;54250;45.572;38.086;2023-01-10T09:05:48;3.04;43.69
67364;HTU21D;54250;45.572;38.086;2023-01-10T09:08:14;2.71;43.22
67364;HTU21D;54250;45.572;38.086;2023-01-10T09:10:40;2.66;43.22
67364;HTU21D;54250;45.572;38.086;2023-01-10T09:13:06;2.57;43.57
67364;HTU21D;54250;45.572;38.086;2023-01-10T09:15:36;2.74;43.80
67364;HTU21D;54250;45.572;38.086;2023-01-10T09:18:05;2.79;43.27
67364;HTU21D;54250;45.572;38.086;2023-01-10T09:20:34;2.55;43.37
67364;HTU21D;54250;45.572;38.086;2023-01-10T09:23:04;2.36;43.35
67364;HTU21D;54250;45.572;38.086;2023-01-10T09:25:31;2.28;43.74
67364;HTU21D;54250;45.572;38.086;2023-01-10T09:27:59;2.42;43.82
67364;HTU21D;54250;45.572;38.086;2023-01-10T09:30:26;2.46;44.06
67364;HTU21D;54250;45.572;38.086;2023-01-10T09:32:54;2.71;43.99
67364;HTU21D;54250;45.572;38.086;2023-01-10T09:35:21;2.72;43.78
67364;HTU21D;54250;45.572;38.086;2023-01-10T09:37:47;2.90;44.00
67364;HTU21D;54250;45.572;38.086;2023-01-10T09:40:19;2.78;43.57
67364;HTU21D;54250;45.572;38.086;2023-01-10T09:43:05;2.57;43.60
67364;HTU21D;54250;45.572;38.086;2023-01-10T09:45:38;2.58;43.95
67364;HTU21D;54250;45.572;38.086;2023-01-10T09:48:26;2.84;44.26
67364;HTU21D;54250;45.572;38.086;2023-01-10T09:53:46;2.20;43.83
67364;HTU21D;54250;45.572;38.086;2023-01-10T09:56:14;2.28;44.22
67364;HTU21D;54250;45.572;38.086;2023-01-10T09:58:43;2.31;44.19
67364;HTU21D;54250;45.572;38.086;2023-01-10T10:01:20;2.47;44.47
67364;HTU21D;54250;45.572;38.086;2023-01-10T10:04:15;2.58;44.45
67364;HTU21D;54250;45.572;38.086;2023-01-10T10:06:44;2.73;44.56
67364;HTU21D;54250;45.572;38.086;2023-01-10T10:09:14;2.69;44.10
67364;HTU21D;54250;45.572;38.086;2023-01-10T10:14:46;2.36;43.98
67364;HTU21D;54250;45.572;38.086;2023-01-10T10:25:53;2.12;44.64
67364;HTU21D;54250;45.572;38.086;2023-01-10T10:28:39;2.17;45.31
67364;HTU21D;54250;45.572;38.086;2023-01-10T10:34:21;2.14;45.22
67364;HTU21D;54250;45.572;38.086;2023-01-10T10:36:53;1.79;44.90
67364;HTU21D;54250;45.572;38.086;2023-01-10T10:39:54;1.55;45.12
67364;HTU21D;54250;45.572;38.086;2023-01-10T10:42:21;1.43;45.94
67364;HTU21D;54250;45.572;38.086;2023-01-10T10:45:03;1.46;45.82
67364;HTU21D;54250;45.572;38.086;2023-01-10T10:47:33;1.25;46.25
67364;HTU21D;54250;45.572;38.086;2023-01-10T10:50:32;0.99;46.46
67364;HTU21D;54250;45.572;38.086;2023-01-10T10:53:00;0.61;47.09
67364;HTU21D;54250;45.572;38.086;2023-01-10T10:55:33;0.47;47.97
67364;HTU21D;54250;45.572;38.086;2023-01-10T10:58:02;0.66;47.99
67364;HTU21D;54250;45.572;38.086;2023-01-10T11:00:29;0.93;47.80
67364;HTU21D;54250;45.572;38.086;2023-01-10T11:05:35;1.02;46.96
67364;HTU21D;54250;45.572;38.086;2023-01-10T11:08:04;0.97;47.07
67364;HTU21D;54250;45.572;38.086;2023-01-10T11:10:35;0.96;47.08
67364;HTU21D;54250;45.572;38.086;2023-01-10T11:15:40;0.86;47.26
67364;HTU21D;54250;45.572;38.086;2023-01-10T11:18:17;0.86;47.24
67364;HTU21D;54250;45.572;38.086;2023-01-10T11:21:07;0.69;47.34
67364;HTU21D;54250;45.572;38.086;2023-01-10T11:26:04;0.80;48.07
67364;HTU21D;54250;45.572;38.086;2023-01-10T11:28:32;0.66;47.87
67364;HTU21D;54250;45.572;38.086;2023-01-10T11:31:00;0.38;48.21
67364;HTU21D;54250;45.572;38.086;2023-01-10T11:33:32;-0.19;48.59
67364;HTU21D;54250;45.572;38.086;2023-01-10T11:36:07;-0.70;49.90
67364;HTU21D;54250;45.572;38.086;2023-01-10T11:38:34;-1.04;50.69
67364;HTU21D;54250;45.572;38.086;2023-01-10T11:41:03;-1.19;51.24
67364;HTU21D;54250;45.572;38.086;2023-01-10T11:43:36;-1.35;51.76
67364;HTU21D;54250;45.572;38.086;2023-01-10T11:49:00;-1.59;52.43
67364;HTU21D;54250;45.572;38.086;2023-01-10T11:51:31;-1.73;52.75
67364;HTU21D;54250;45.572;38.086;2023-01-10T11:54:00;-1.76;53.00
67364;HTU21D;54250;45.572;38.086;2023-01-10T11:56:37;-1.80;53.20
67364;HTU21D;54250;45.572;38.086;2023-01-10T11:59:17;-1.86;53.30
67364;HTU21D;54250;45.572;38.086;2023-01-10T12:02:00;-1.92;53.62
67364;HTU21D;54250;45.572;38.086;2023-01-10T12:04:28;-1.90;53.68
67364;HTU21D;54250;45.572;38.086;2023-01-10T12:07:15;-1.90;54.00
67364;HTU21D;54250;45.572;38.086;2023-01-10T12:10:23;-1.90;54.22
67364;HTU21D;54250;45.572;38.086;2023-01-10T12:12:59;-1.91;54.30
67364;HTU21D;54250;45.572;38.086;2023-01-10T12:15:32;-1.93;54.52
67364;HTU21D;54250;45.572;38.086;2023-01-10T12:18:01;-1.95;54.42
67364;HTU21D;54250;45.572;38.086;2023-01-10T12:20:30;-1.95;54.65
67364;HTU21D;54250;45.572;38.086;2023-01-10T12:23:06;-1.90;54.84
67364;HTU21D;54250;45.572;38.086;2023-01-10T12:25:52;-1.92;54.91
67364;HTU21D;54250;45.572;38.086;2023-01-10T12:28:25;-1.91;54.91
67364;HTU21D;54250;45.572;38.086;2023-01-10T12:30:52;-1.99;54.80
67364;HTU21D;54250;45.572;38.086;2023-01-10T12:33:33;-1.99;54.75
67364;HTU21D;54250;45.572;38.086;2023-01-10T12:44:45;-2.03;55.61
67364;HTU21D;54250;45.572;38.086;2023-01-10T12:47:29;-2.08;55.65
67364;HTU21D;54250;45.572;38.086;2023-01-10T12:52:49;-2.14;56.27
67364;HTU21D;54250;45.572;38.086;2023-01-10T12:55:19;-2.17;56.55
67364;HTU21D;54250;45.572;38.086;2023-01-10T12:57:47;-2.22;56.81
67364;HTU21D;54250;45.572;38.086;2023-01-10T13:00:52;-2.27;56.93
67364;HTU21D;54250;45.572;38.086;2023-01-10T13:03:23;-2.34;57.24
67364;HTU21D;54250;45.572;38.086;2023-01-10T13:05:52;-2.44;57.53
67364;HTU21D;54250;45.572;38.086;2023-01-10T13:08:24;-2.56;57.89
67364;HTU21D;54250;45.572;38.086;2023-01-10T13:10:53;-2.63;58.29
67364;HTU21D;54250;45.572;38.086;2023-01-10T13:16:39;-2.78;58.61
67364;HTU21D;54250;45.572;38.086;2023-01-10T13:21:38;-2.96;59.57
67364;HTU21D;54250;45.572;38.086;2023-01-10T13:27:01;-3.15;59.88
67364;HTU21D;54250;45.572;38.086;2023-01-10T13:29:31;-3.19;60.13
67364;HTU21D;54250;45.572;38.086;2023-01-10T13:32:19;-3.34;60.50
67364;HTU21D;54250;45.572;38.086;2023-01-10T13:34:46;-3.39;60.87
67364;HTU21D;54250;45.572;38.086;2023-01-10T13:37:34;-3.46;61.06
67364;HTU21D;54250;45.572;38.086;2023-01-10T13:40:01;-3.53;61.31
67364;HTU21D;54250;45.572;38.086;2023-01-10T13:42:31;-3.58;61.61
67364;HTU21D;54250;45.572;38.086;2023-01-10T13:45:19;-3.72;61.69
67364;HTU21D;54250;45.572;38.086;2023-01-10T14:01:29;-4.17;63.37
67364;HTU21D;54250;45.572;38.086;2023-01-10T14:04:20;-4.25;63.66
67364;HTU21D;54250;45.572;38.086;2023-01-10T14:07:11;-4.36;63.86
67364;HTU21D;54250;45.572;38.086;2023-01-10T14:09:42;-4.45;64.40
67364;HTU21D;54250;45.572;38.086;2023-01-10T14:12:30;-4.49;64.34
67364;HTU21D;54250;45.572;38.086;2023-01-10T14:15:22;-4.52;64.53
67364;HTU21D;54250;45.572;38.086;2023-01-10T14:18:02;-4.55;64.72
67364;HTU21D;54250;45.572;38.086;2023-01-10T14:20:31;-4.54;64.96
67364;HTU21D;54250;45.572;38.086;2023-01-10T14:23:05;-4.55;64.98
67364;HTU21D;54250;45.572;38.086;2023-01-10T14:25:35;-4.60;65.13
67364;HTU21D;54250;45.572;38.086;2023-01-10T14:28:02;-4.68;65.49
67364;HTU21D;54250;45.572;38.086;2023-01-10T14:30:33;-4.65;65.62
67364;HTU21D;54250;45.572;38.086;2023-01-10T14:33:11;-4.73;65.65
67364;HTU21D;54250;45.572;38.086;2023-01-10T14:35:43;-4.78;66.04
67364;HTU21D;54250;45.572;38.086;2023-01-10T14:38:18;-4.79;66.26
67364;HTU21D;54250;45.572;38.086;2023-01-10T14:40:47;-4.84;66.54
67364;HTU21D;54250;45.572;38.086;2023-01-10T14:43:18;-4.82;66.63
67364;HTU21D;54250;45.572;38.086;2023-01-10T14:51:15;-4.96;67.30
67364;HTU21D;54250;45.572;38.086;2023-01-10T14:53:39;-5.02;67.46
67364;HTU21D;54250;45.572;38.086;2023-01-10T14:56:26;-5.04;67.66
67364;HTU21D;54250;45.572;38.086;2023-01-10T14:58:52;-5.08;67.91
67364;HTU21D;54250;45.572;38.086;2023-01-10T15:01:27;-5.10;68.02
67364;HTU21D;54250;45.572;38.086;2023-01-10T15:03:56;-5.11;68.12
67364;HTU21D;54250;45.572;38.086;2023-01-10T15:06:23;-5.11;68.33
67364;HTU21D;54250;45.572;38.086;2023-01-10T15:08:57;-5.17;68.63
67364;HTU21D;54250;45.572;38.086;2023-01-10T15:11:24;-5.16;68.66
67364;HTU21D;54250;45.572;38.086;2023-01-10T15:13:53;-5.15;68.78
67364;HTU21D;54250;45.572;38.086;2023-01-10T15:16:23;-5.20;68.91
67364;HTU21D;54250;45.572;38.086;2023-01-10T15:18:50;-5.28;69.02
67364;HTU21D;54250;45.572;38.086;2023-01-10T15:21:17;-5.33;69.38
67364;HTU21D;54250;45.572;38.086;2023-01-10T15:23:47;-5.38;69.47
67364;HTU21D;54250;45.572;38.086;2023-01-10T15:26:18;-5.41;69.58
67364;HTU21D;54250;45.572;38.086;2023-01-10T15:29:10;-5.42;69.81
67364;HTU21D;54250;45.572;38.086;2023-01-10T15:31:37;-5.48;70.19
67364;HTU21D;54250;45.572;38.086;2023-01-10T15:34:18;-5.49;70.42
67364;HTU21D;54250;45.572;38.086;2023-01-10T15:36:48;-5.48;70.68
67364;HTU21D;54250;45.572;38.086;2023-01-10T15:39:43;-5.48;70.71
67364;HTU21D;54250;45.572;38.086;2023-01-10T15:42:10;-5.59;70.77
67364;HTU21D;54250;45.572;38.086;2023-01-10T15:44:39;-5.69;71.20
67364;HTU21D;54250;45.572;38.086;2023-01-10T15:49:54;-5.69;71.59
67364;HTU21D;54250;45.572;38.086;2023-01-10T15:52:23;-5.70;71.83
67364;HTU21D;54250;45.572;38.086;2023-01-10T15:54:49;-5.76;71.80
67364;HTU21D;54250;45.572;38.086;2023-01-10T15:57:31;-5.81;72.04
67364;HTU21D;54250;45.572;38.086;2023-01-10T15:59:58;-5.79;72.45
67364;HTU21D;54250;45.572;38.086;2023-01-10T16:02:29;-5.78;72.24
67364;HTU21D;54250;45.572;38.086;2023-01-10T16:05:09;-5.82;72.54
67364;HTU21D;54250;45.572;38.086;2023-01-10T16:07:43;-5.78;72.70
67364;HTU21D;54250;45.572;38.086;2023-01-10T16:10:25;-5.87;72.72
67364;HTU21D;54250;45.572;38.086;2023-01-10T16:12:52;-5.89;72.96
67364;HTU21D;54250;45.572;38.086;2023-01-10T16:15:40;-5.88;73.24
67364;HTU21D;54250;45.572;38.086;2023-01-10T16:18:09;-5.87;73.23
67364;HTU21D;54250;45.572;38.086;2023-01-10T16:20:38;-5.87;73.24
67364;HTU21D;54250;45.572;38.086;2023-01-10T16:23:12;-5.92;73.38
67364;HTU21D;54250;45.572;38.086;2023-01-10T16:25:43;-5.90;73.29
67364;HTU21D;54250;45.572;38.086;2023-01-10T16:28:12;-5.94;73.39
67364;HTU21D;54250;45.572;38.086;2023-01-10T16:30:39;-5.99;73.32
67364;HTU21D;54250;45.572;38.086;2023-01-10T16:33:17;-6.07;73.57
67364;HTU21D;54250;45.572;38.086;2023-01-10T16:35:45;-6.08;73.86
67364;HTU21D;54250;45.572;38.086;2023-01-10T16:38:11;-6.12;73.94
67364;HTU21D;54250;45.572;38.086;2023-01-10T16:40:40;-6.15;74.09
67364;HTU21D;54250;45.572;38.086;2023-01-10T16:43:09;-6.13;74.06
67364;HTU21D;54250;45.572;38.086;2023-01-10T16:45:55;-6.19;74.12
67364;HTU21D;54250;45.572;38.086;2023-01-10T16:48:26;-6.22;74.25
67364;HTU21D;54250;45.572;38.086;2023-01-10T16:50:53;-6.26;74.51
67364;HTU21D;54250;45.572;38.086;2023-01-10T16:53:19;-6.26;74.67
67364;HTU21D;54250;45.572;38.086;2023-01-10T16:55:47;-6.24;74.64
67364;HTU21D;54250;45.572;38.086;2023-01-10T16:58:14;-6.27;74.58
67364;HTU21D;54250;45.572;38.086;2023-01-10T17:00:42;-6.26;74.67
67364;HTU21D;54250;45.572;38.086;2023-01-10T17:03:15;-6.24;74.64
67364;HTU21D;54250;45.572;38.086;2023-01-10T17:05:42;-6.33;74.97
67364;HTU21D;54250;45.572;38.086;2023-01-10T17:08:14;-6.33;74.81
67364;HTU21D;54250;45.572;38.086;2023-01-10T17:10:42;-6.34;74.95
67364;HTU21D;54250;45.572;38.086;2023-01-10T17:13:10;-6.42;75.09